Youngtown, AZ

5:37 PM MST on January 28, 2015 (GMT -0700)
APRSWXNET El Mirage AZ US | Change Station
CLOSE
Current Station
Personal Weather Station
Location: El Mirage, AZ
Elevation: 1112 ft
Nearby Weather Stations

Elev 1112 ft 33.60 °N, 112.32 °W | Updated 40 minutes ago

Partly Cloudy
Partly Cloudy
72 °F
Feels Like 77 °F
N
2
Wind Variable Wind from NNW
Gusts 4.0 mph

Today
High -- | Low -- °F
--% Chance of Precip.
Yesterday
High -- | Low -- °F
Precip. -- in
7:28 AM 5:56 PM
Waxing Gibbous, 69% visible
Pressure 30.08 in
Visibility 20.0 miles
Clouds Few 5000 ft
Scattered Clouds 18000 ft
Mostly Cloudy 20000 ft
Heat Index 77 °F
Dew Point 49 °F
Humidity 45%
Rainfall 0.00 in
Snow Depth Not available.
UV 0 out of 12
Pollen 5.20 out of 12
Air Quality Not available.
Flu Activity Not available.
METAR KGEU 282347Z 21008KT 20SM FEW050 SCT180 BKN200 23/10 A3008

More Conditions Fewer Conditions

Pressure 30.08 in
Visibility 20.0 miles
Clouds Few 5000 ft
Scattered Clouds 18000 ft
Mostly Cloudy 20000 ft
Heat Index 77 °F
Dew Point 49 °F
Humidity 45%
Rainfall 0.00 in
Snow Depth Not available.
UV 0 out of 12
Pollen 5.20 out of 12
Air Quality Not available.
Flu Activity Not available.
METAR KGEU 282347Z 21008KT 20SM FEW050 SCT180 BKN200 23/10 A3008

More Conditions Fewer Conditions

10-Day Weather Forecast

Almanac

Astronomy

Jan. 28, 2015 Rise Set
Actual Time
Civil Twilight
Nautical Twilight
Astronomical Twilight
Moon
Length of Visible Light
Length of Day
Tomorrow will be .
, % of the Moon is Illuminated

Today's Extremes

State Highs State Lows

Community

WunderPhotos

Upload Photos

1,791,309 photos uploaded!

WunderBlogs® & News

Nearby

Air Quality

  Air Quality AQ Index Pollutant
Not available.

Snow Depth

Station Depth Elevation

Earthquake Activity

City Distance Mag. Time & Date
Minimum magnitude displayed is 2.5.

Coastal Water Temperatures

Place Temperature

Nearby Weather Stations